sensor_id;sensor_type;location;lat;lon;timestamp;P1;P2;P0
73305;PMS5003;61530;51.158;0.880;2023-04-25T00:00:57;19;10;6
73305;PMS5003;61530;51.158;0.880;2023-04-25T00:02:01;17;13;9
73305;PMS5003;61530;51.158;0.880;2023-04-25T00:03:04;13;11;9
73305;PMS5003;61530;51.158;0.880;2023-04-25T00:04:08;15;12;9
73305;PMS5003;61530;51.158;0.880;2023-04-25T00:05:13;11;10;4
73305;PMS5003;61530;51.158;0.880;2023-04-25T00:06:16;13;10;6
73305;PMS5003;61530;51.158;0.880;2023-04-25T00:07:20;14;12;4
73305;PMS5003;61530;51.158;0.880;2023-04-25T00:08:24;15;10;5
73305;PMS5003;61530;51.158;0.880;2023-04-25T00:09:29;10;9;5
73305;PMS5003;61530;51.158;0.880;2023-04-25T00:10:33;14;12;6
73305;PMS5003;61530;51.158;0.880;2023-04-25T00:11:36;12;11;6
73305;PMS5003;61530;51.158;0.880;2023-04-25T00:12:40;14;13;10
73305;PMS5003;61530;51.158;0.880;2023-04-25T00:13:45;10;10;5
73305;PMS5003;61530;51.158;0.880;2023-04-25T00:14:48;15;14;7
73305;PMS5003;61530;51.158;0.880;2023-04-25T00:15:52;14;12;7
73305;PMS5003;61530;51.158;0.880;2023-04-25T00:16:55;13;12;5
73305;PMS5003;61530;51.158;0.880;2023-04-25T00:18:01;14;12;6
73305;PMS5003;61530;51.158;0.880;2023-04-25T00:19:05;17;11;6
73305;PMS5003;61530;51.158;0.880;2023-04-25T00:20:08;14;14;4
73305;PMS5003;61530;51.158;0.880;2023-04-25T00:21:12;7;7;5
73305;PMS5003;61530;51.158;0.880;2023-04-25T00:22:17;14;14;9
73305;PMS5003;61530;51.158;0.880;2023-04-25T00:23:21;17;12;9
73305;PMS5003;61530;51.158;0.880;2023-04-25T00:24:24;14;11;3
73305;PMS5003;61530;51.158;0.880;2023-04-25T00:25:28;12;10;5
73305;PMS5003;61530;51.158;0.880;2023-04-25T00:26:33;15;12;6
73305;PMS5003;61530;51.158;0.880;2023-04-25T00:27:37;14;11;5
73305;PMS5003;61530;51.158;0.880;2023-04-25T00:28:40;12;10;5
73305;PMS5003;61530;51.158;0.880;2023-04-25T00:29:44;18;12;7
73305;PMS5003;61530;51.158;0.880;2023-04-25T00:30:49;15;10;5
73305;PMS5003;61530;51.158;0.880;2023-04-25T00:31:52;13;12;9
73305;PMS5003;61530;51.158;0.880;2023-04-25T00:32:56;12;10;4
73305;PMS5003;61530;51.158;0.880;2023-04-25T00:34:00;13;11;9
73305;PMS5003;61530;51.158;0.880;2023-04-25T00:35:05;14;13;5
73305;PMS5003;61530;51.158;0.880;2023-04-25T00:36:09;15;9;4
73305;PMS5003;61530;51.158;0.880;2023-04-25T00:37:12;12;11;7
73305;PMS5003;61530;51.158;0.880;2023-04-25T00:38:16;21;17;12
73305;PMS5003;61530;51.158;0.880;2023-04-25T00:39:21;24;19;14
73305;PMS5003;61530;51.158;0.880;2023-04-25T00:40:24;29;24;21
73305;PMS5003;61530;51.158;0.880;2023-04-25T00:41:28;36;31;26
73305;PMS5003;61530;51.158;0.880;2023-04-25T00:42:32;22;17;9
73305;PMS5003;61530;51.158;0.880;2023-04-25T00:43:37;17;14;10
73305;PMS5003;61530;51.158;0.880;2023-04-25T00:44:41;22;22;19
73305;PMS5003;61530;51.158;0.880;2023-04-25T00:45:44;36;35;34
73305;PMS5003;61530;51.158;0.880;2023-04-25T00:46:48;19;15;9
73305;PMS5003;61530;51.158;0.880;2023-04-25T00:47:53;14;13;7
73305;PMS5003;61530;51.158;0.880;2023-04-25T00:48:56;31;28;23
73305;PMS5003;61530;51.158;0.880;2023-04-25T00:50:00;19;19;14
73305;PMS5003;61530;51.158;0.880;2023-04-25T00:51:03;44;42;37
73305;PMS5003;61530;51.158;0.880;2023-04-25T00:52:09;12;12;4
73305;PMS5003;61530;51.158;0.880;2023-04-25T00:53:13;30;24;20
73305;PMS5003;61530;51.158;0.880;2023-04-25T00:54:16;37;36;33
73305;PMS5003;61530;51.158;0.880;2023-04-25T00:55:20;24;21;17
73305;PMS5003;61530;51.158;0.880;2023-04-25T00:56:25;51;49;44
73305;PMS5003;61530;51.158;0.880;2023-04-25T00:57:29;24;24;21
73305;PMS5003;61530;51.158;0.880;2023-04-25T00:58:32;24;22;19
73305;PMS5003;61530;51.158;0.880;2023-04-25T00:59:36;14;11;8
73305;PMS5003;61530;51.158;0.880;2023-04-25T01:00:41;30;27;25
73305;PMS5003;61530;51.158;0.880;2023-04-25T01:01:45;68;61;58
73305;PMS5003;61530;51.158;0.880;2023-04-25T01:02:48;28;26;17
73305;PMS5003;61530;51.158;0.880;2023-04-25T01:03:52;67;67;64
73305;PMS5003;61530;51.158;0.880;2023-04-25T01:04:57;42;41;37
73305;PMS5003;61530;51.158;0.880;2023-04-25T01:06:01;38;34;27
73305;PMS5003;61530;51.158;0.880;2023-04-25T01:07:04;60;57;53
73305;PMS5003;61530;51.158;0.880;2023-04-25T01:08:08;35;34;25
73305;PMS5003;61530;51.158;0.880;2023-04-25T01:09:13;83;83;80
73305;PMS5003;61530;51.158;0.880;2023-04-25T01:10:17;61;59;57
73305;PMS5003;61530;51.158;0.880;2023-04-25T01:11:20;21;20;11
73305;PMS5003;61530;51.158;0.880;2023-04-25T01:12:24;26;22;13
73305;PMS5003;61530;51.158;0.880;2023-04-25T01:13:29;33;32;28
73305;PMS5003;61530;51.158;0.880;2023-04-25T01:14:32;46;46;43
73305;PMS5003;61530;51.158;0.880;2023-04-25T01:15:36;53;51;46
73305;PMS5003;61530;51.158;0.880;2023-04-25T01:16:40;17;16;9
73305;PMS5003;61530;51.158;0.880;2023-04-25T01:17:45;32;30;27
73305;PMS5003;61530;51.158;0.880;2023-04-25T01:18:49;55;50;46
73305;PMS5003;61530;51.158;0.880;2023-04-25T01:19:52;55;55;47
73305;PMS5003;61530;51.158;0.880;2023-04-25T01:20:56;24;21;16
73305;PMS5003;61530;51.158;0.880;2023-04-25T01:22:02;52;50;44
73305;PMS5003;61530;51.158;0.880;2023-04-25T01:23:04;28;22;14
73305;PMS5003;61530;51.158;0.880;2023-04-25T01:24:08;21;20;11
73305;PMS5003;61530;51.158;0.880;2023-04-25T01:25:11;22;14;5
73305;PMS5003;61530;51.158;0.880;2023-04-25T01:26:17;77;75;71
73305;PMS5003;61530;51.158;0.880;2023-04-25T01:27:21;20;19;12
73305;PMS5003;61530;51.158;0.880;2023-04-25T01:28:24;34;30;24
73305;PMS5003;61530;51.158;0.880;2023-04-25T01:29:28;25;21;17
73305;PMS5003;61530;51.158;0.880;2023-04-25T01:30:33;36;34;24
73305;PMS5003;61530;51.158;0.880;2023-04-25T01:31:36;29;25;13
73305;PMS5003;61530;51.158;0.880;2023-04-25T01:32:40;43;40;32
73305;PMS5003;61530;51.158;0.880;2023-04-25T01:33:44;28;24;14
73305;PMS5003;61530;51.158;0.880;2023-04-25T01:34:49;49;47;40
73305;PMS5003;61530;51.158;0.880;2023-04-25T01:35:53;35;33;28
73305;PMS5003;61530;51.158;0.880;2023-04-25T01:36:56;37;34;24
73305;PMS5003;61530;51.158;0.880;2023-04-25T01:38:00;45;43;37
73305;PMS5003;61530;51.158;0.880;2023-04-25T01:39:05;25;25;16
73305;PMS5003;61530;51.158;0.880;2023-04-25T01:40:09;28;24;18
73305;PMS5003;61530;51.158;0.880;2023-04-25T01:41:12;22;21;12
73305;PMS5003;61530;51.158;0.880;2023-04-25T01:42:16;25;20;11
73305;PMS5003;61530;51.158;0.880;2023-04-25T01:43:21;72;71;66
73305;PMS5003;61530;51.158;0.880;2023-04-25T01:44:25;40;39;32
73305;PMS5003;61530;51.158;0.880;2023-04-25T01:45:28;35;33;24
73305;PMS5003;61530;51.158;0.880;2023-04-25T01:46:32;28;27;21
73305;PMS5003;61530;51.158;0.880;2023-04-25T01:47:38;28;28;25
73305;PMS5003;61530;51.158;0.880;2023-04-25T01:48:40;28;26;21
73305;PMS5003;61530;51.158;0.880;2023-04-25T01:49:44;31;29;20
73305;PMS5003;61530;51.158;0.880;2023-04-25T01:50:48;25;22;17
73305;PMS5003;61530;51.158;0.880;2023-04-25T01:51:53;32;28;21
73305;PMS5003;61530;51.158;0.880;2023-04-25T01:52:57;25;25;20
73305;PMS5003;61530;51.158;0.880;2023-04-25T01:54:00;29;27;19
73305;PMS5003;61530;51.158;0.880;2023-04-25T01:55:05;26;25;17
73305;PMS5003;61530;51.158;0.880;2023-04-25T01:56:09;25;22;17
73305;PMS5003;61530;51.158;0.880;2023-04-25T01:57:13;38;36;25
73305;PMS5003;61530;51.158;0.880;2023-04-25T01:58:16;37;36;25
73305;PMS5003;61530;51.158;0.880;2023-04-25T01:59:19;30;29;22
73305;PMS5003;61530;51.158;0.880;2023-04-25T02:00:25;75;72;67
73305;PMS5003;61530;51.158;0.880;2023-04-25T02:01:29;48;46;40
73305;PMS5003;61530;51.158;0.880;2023-04-25T02:02:32;39;36;32
73305;PMS5003;61530;51.158;0.880;2023-04-25T02:03:36;28;27;21
73305;PMS5003;61530;51.158;0.880;2023-04-25T02:04:41;27;27;19
73305;PMS5003;61530;51.158;0.880;2023-04-25T02:05:44;24;21;15
73305;PMS5003;61530;51.158;0.880;2023-04-25T02:06:48;22;22;17
73305;PMS5003;61530;51.158;0.880;2023-04-25T02:07:51;42;42;35
73305;PMS5003;61530;51.158;0.880;2023-04-25T02:08:57;43;39;31
73305;PMS5003;61530;51.158;0.880;2023-04-25T02:10:01;56;52;45
73305;PMS5003;61530;51.158;0.880;2023-04-25T02:11:04;26;20;12
73305;PMS5003;61530;51.158;0.880;2023-04-25T02:12:09;21;19;11
73305;PMS5003;61530;51.158;0.880;2023-04-25T02:13:13;27;24;14
73305;PMS5003;61530;51.158;0.880;2023-04-25T02:14:16;36;36;32
73305;PMS5003;61530;51.158;0.880;2023-04-25T02:15:20;25;23;12
73305;PMS5003;61530;51.158;0.880;2023-04-25T02:16:23;24;21;16
73305;PMS5003;61530;51.158;0.880;2023-04-25T02:17:29;43;38;30
73305;PMS5003;61530;51.158;0.880;2023-04-25T02:18:33;23;20;13
73305;PMS5003;61530;51.158;0.880;2023-04-25T02:19:36;29;27;21
73305;PMS5003;61530;51.158;0.880;2023-04-25T02:20:40;20;18;10
73305;PMS5003;61530;51.158;0.880;2023-04-25T02:21:45;30;26;18
73305;PMS5003;61530;51.158;0.880;2023-04-25T02:22:48;19;17;10
73305;PMS5003;61530;51.158;0.880;2023-04-25T02:23:52;31;30;24
73305;PMS5003;61530;51.158;0.880;2023-04-25T02:24:55;24;21;15
73305;PMS5003;61530;51.158;0.880;2023-04-25T02:26:01;31;31;21
73305;PMS5003;61530;51.158;0.880;2023-04-25T02:27:05;20;17;9
73305;PMS5003;61530;51.158;0.880;2023-04-25T02:28:08;40;39;32
73305;PMS5003;61530;51.158;0.880;2023-04-25T02:29:12;30;30;20
73305;PMS5003;61530;51.158;0.880;2023-04-25T02:30:17;20;19;11
73305;PMS5003;61530;51.158;0.880;2023-04-25T02:31:20;22;20;12
73305;PMS5003;61530;51.158;0.880;2023-04-25T02:32:24;32;27;20
73305;PMS5003;61530;51.158;0.880;2023-04-25T02:33:27;29;23;14
73305;PMS5003;61530;51.158;0.880;2023-04-25T02:34:33;28;27;19
73305;PMS5003;61530;51.158;0.880;2023-04-25T02:35:37;20;20;10
73305;PMS5003;61530;51.158;0.880;2023-04-25T02:36:40;28;25;17
73305;PMS5003;61530;51.158;0.880;2023-04-25T02:37:44;25;23;15
73305;PMS5003;61530;51.158;0.880;2023-04-25T02:38:49;40;38;30
73305;PMS5003;61530;51.158;0.880;2023-04-25T02:39:53;34;34;27
73305;PMS5003;61530;51.158;0.880;2023-04-25T02:40:56;24;24;15
73305;PMS5003;61530;51.158;0.880;2023-04-25T02:42:00;27;25;15
73305;PMS5003;61530;51.158;0.880;2023-04-25T02:43:05;34;30;19
73305;PMS5003;61530;51.158;0.880;2023-04-25T02:44:09;26;26;17
73305;PMS5003;61530;51.158;0.880;2023-04-25T02:45:12;33;30;23
73305;PMS5003;61530;51.158;0.880;2023-04-25T02:46:16;37;32;21
73305;PMS5003;61530;51.158;0.880;2023-04-25T02:47:21;38;34;24
73305;PMS5003;61530;51.158;0.880;2023-04-25T02:48:25;30;27;18
73305;PMS5003;61530;51.158;0.880;2023-04-25T02:49:28;32;28;20
73305;PMS5003;61530;51.158;0.880;2023-04-25T02:50:32;28;28;19
73305;PMS5003;61530;51.158;0.880;2023-04-25T02:51:37;41;38;28
73305;PMS5003;61530;51.158;0.880;2023-04-25T02:52:41;32;28;22
73305;PMS5003;61530;51.158;0.880;2023-04-25T02:53:44;20;19;12
73305;PMS5003;61530;51.158;0.880;2023-04-25T02:54:48;25;25;18
73305;PMS5003;61530;51.158;0.880;2023-04-25T02:55:53;28;23;10
73305;PMS5003;61530;51.158;0.880;2023-04-25T02:56:57;20;19;11
73305;PMS5003;61530;51.158;0.880;2023-04-25T02:58:00;24;23;15
73305;PMS5003;61530;51.158;0.880;2023-04-25T02:59:04;37;32;24
73305;PMS5003;61530;51.158;0.880;2023-04-25T03:00:09;34;30;22
73305;PMS5003;61530;51.158;0.880;2023-04-25T03:01:13;34;34;25
73305;PMS5003;61530;51.158;0.880;2023-04-25T03:02:16;31;30;22
73305;PMS5003;61530;51.158;0.880;2023-04-25T03:03:20;28;26;17
73305;PMS5003;61530;51.158;0.880;2023-04-25T03:04:25;41;41;34
73305;PMS5003;61530;51.158;0.880;2023-04-25T03:05:29;31;31;23
73305;PMS5003;61530;51.158;0.880;2023-04-25T03:06:32;33;30;22
73305;PMS5003;61530;51.158;0.880;2023-04-25T03:07:36;43;38;30
73305;PMS5003;61530;51.158;0.880;2023-04-25T03:08:41;36;31;22
73305;PMS5003;61530;51.158;0.880;2023-04-25T03:09:45;31;25;17
73305;PMS5003;61530;51.158;0.880;2023-04-25T03:10:48;30;30;23
73305;PMS5003;61530;51.158;0.880;2023-04-25T03:11:52;33;31;22
73305;PMS5003;61530;51.158;0.880;2023-04-25T03:12:57;31;30;23
73305;PMS5003;61530;51.158;0.880;2023-04-25T03:14:01;30;27;20
73305;PMS5003;61530;51.158;0.880;2023-04-25T03:15:04;42;38;30
73305;PMS5003;61530;51.158;0.880;2023-04-25T03:16:08;40;37;29
73305;PMS5003;61530;51.158;0.880;2023-04-25T03:17:13;45;36;25
73305;PMS5003;61530;51.158;0.880;2023-04-25T03:18:17;45;42;35
73305;PMS5003;61530;51.158;0.880;2023-04-25T03:19:21;51;47;38
73305;PMS5003;61530;51.158;0.880;2023-04-25T03:20:24;40;39;31
73305;PMS5003;61530;51.158;0.880;2023-04-25T03:21:29;59;57;48
73305;PMS5003;61530;51.158;0.880;2023-04-25T03:22:33;66;61;54
73305;PMS5003;61530;51.158;0.880;2023-04-25T03:23:36;88;88;80
73305;PMS5003;61530;51.158;0.880;2023-04-25T03:24:40;88;86;79
73305;PMS5003;61530;51.158;0.880;2023-04-25T03:25:45;78;77;68
73305;PMS5003;61530;51.158;0.880;2023-04-25T03:26:49;92;89;81
73305;PMS5003;61530;51.158;0.880;2023-04-25T03:27:52;70;64;56
73305;PMS5003;61530;51.158;0.880;2023-04-25T03:28:56;67;66;58
73305;PMS5003;61530;51.158;0.880;2023-04-25T03:30:02;66;61;54
73305;PMS5003;61530;51.158;0.880;2023-04-25T03:31:05;32;28;21
73305;PMS5003;61530;51.158;0.880;2023-04-25T03:32:08;7;4;3
73305;PMS5003;61530;51.158;0.880;2023-04-25T03:33:12;10;9;4
73305;PMS5003;61530;51.158;0.880;2023-04-25T03:34:17;37;35;31
73305;PMS5003;61530;51.158;0.880;2023-04-25T03:35:21;65;64;60
73305;PMS5003;61530;51.158;0.880;2023-04-25T03:36:24;23;19;16
73305;PMS5003;61530;51.158;0.880;2023-04-25T03:37:28;15;7;3
73305;PMS5003;61530;51.158;0.880;2023-04-25T03:38:33;7;3;2
73305;PMS5003;61530;51.158;0.880;2023-04-25T03:39:37;9;4;2
73305;PMS5003;61530;51.158;0.880;2023-04-25T03:40:40;7;5;2
73305;PMS5003;61530;51.158;0.880;2023-04-25T03:41:44;7;5;2
73305;PMS5003;61530;51.158;0.880;2023-04-25T03:42:49;9;5;2
73305;PMS5003;61530;51.158;0.880;2023-04-25T03:43:53;4;4;2
73305;PMS5003;61530;51.158;0.880;2023-04-25T03:44:56;10;7;2
73305;PMS5003;61530;51.158;0.880;2023-04-25T03:46:00;5;5;2
73305;PMS5003;61530;51.158;0.880;2023-04-25T03:47:05;9;7;4
73305;PMS5003;61530;51.158;0.880;2023-04-25T03:48:09;10;5;3
73305;PMS5003;61530;51.158;0.880;2023-04-25T03:49:12;18;12;4
73305;PMS5003;61530;51.158;0.880;2023-04-25T03:50:16;5;3;2
73305;PMS5003;61530;51.158;0.880;2023-04-25T03:51:21;5;5;2
73305;PMS5003;61530;51.158;0.880;2023-04-25T03:52:25;11;5;2
73305;PMS5003;61530;51.158;0.880;2023-04-25T03:53:28;4;3;2
73305;PMS5003;61530;51.158;0.880;2023-04-25T03:54:32;8;8;2
73305;PMS5003;61530;51.158;0.880;2023-04-25T03:55:37;8;5;2
73305;PMS5003;61530;51.158;0.880;2023-04-25T03:56:41;12;5;3
73305;PMS5003;61530;51.158;0.880;2023-04-25T03:57:44;7;5;2
73305;PMS5003;61530;51.158;0.880;2023-04-25T03:58:48;7;7;2
73305;PMS5003;61530;51.158;0.880;2023-04-25T03:59:53;9;8;3
73305;PMS5003;61530;51.158;0.880;2023-04-25T04:00:57;13;10;2
73305;PMS5003;61530;51.158;0.880;2023-04-25T04:02:00;8;5;2
73305;PMS5003;61530;51.158;0.880;2023-04-25T04:03:04;8;7;3
73305;PMS5003;61530;51.158;0.880;2023-04-25T04:04:09;9;8;3
73305;PMS5003;61530;51.158;0.880;2023-04-25T04:05:13;9;4;2
73305;PMS5003;61530;51.158;0.880;2023-04-25T04:06:16;8;7;2
73305;PMS5003;61530;51.158;0.880;2023-04-25T04:07:20;9;8;3
73305;PMS5003;61530;51.158;0.880;2023-04-25T04:08:25;12;8;3
73305;PMS5003;61530;51.158;0.880;2023-04-25T04:09:29;10;8;3
73305;PMS5003;61530;51.158;0.880;2023-04-25T04:10:32;4;4;2
73305;PMS5003;61530;51.158;0.880;2023-04-25T04:11:36;11;7;3
73305;PMS5003;61530;51.158;0.880;2023-04-25T04:12:41;10;8;4
73305;PMS5003;61530;51.158;0.880;2023-04-25T04:13:45;13;7;3
73305;PMS5003;61530;51.158;0.880;2023-04-25T04:14:48;13;7;3
73305;PMS5003;61530;51.158;0.880;2023-04-25T04:15:52;5;5;2
73305;PMS5003;61530;51.158;0.880;2023-04-25T04:16:57;8;5;2
73305;PMS5003;61530;51.158;0.880;2023-04-25T04:18:01;9;5;2
73305;PMS5003;61530;51.158;0.880;2023-04-25T04:19:04;7;5;3
73305;PMS5003;61530;51.158;0.880;2023-04-25T04:20:08;7;7;3
73305;PMS5003;61530;51.158;0.880;2023-04-25T04:21:13;10;7;3
73305;PMS5003;61530;51.158;0.880;2023-04-25T04:22:17;8;4;2
73305;PMS5003;61530;51.158;0.880;2023-04-25T04:23:20;7;7;3
73305;PMS5003;61530;51.158;0.880;2023-04-25T04:24:24;13;11;3
73305;PMS5003;61530;51.158;0.880;2023-04-25T04:25:29;11;8;4
73305;PMS5003;61530;51.158;0.880;2023-04-25T04:26:33;12;8;3
73305;PMS5003;61530;51.158;0.880;2023-04-25T04:27:36;11;7;3
73305;PMS5003;61530;51.158;0.880;2023-04-25T04:28:40;5;4;3
73305;PMS5003;61530;51.158;0.880;2023-04-25T04:29:45;16;14;2
73305;PMS5003;61530;51.158;0.880;2023-04-25T04:30:49;7;7;3
73305;PMS5003;61530;51.158;0.880;2023-04-25T04:31:52;9;8;2
73305;PMS5003;61530;51.158;0.880;2023-04-25T04:32:56;8;5;2
73305;PMS5003;61530;51.158;0.880;2023-04-25T04:34:01;11;7;2
73305;PMS5003;61530;51.158;0.880;2023-04-25T04:35:05;8;8;3
73305;PMS5003;61530;51.158;0.880;2023-04-25T04:36:08;7;4;2
73305;PMS5003;61530;51.158;0.880;2023-04-25T04:37:12;7;7;3
73305;PMS5003;61530;51.158;0.880;2023-04-25T04:38:17;9;7;2
73305;PMS5003;61530;51.158;0.880;2023-04-25T04:39:21;7;5;2
73305;PMS5003;61530;51.158;0.880;2023-04-25T04:40:24;9;7;2
73305;PMS5003;61530;51.158;0.880;2023-04-25T04:41:28;8;4;2
73305;PMS5003;61530;51.158;0.880;2023-04-25T04:42:33;14;8;4
73305;PMS5003;61530;51.158;0.880;2023-04-25T04:43:37;4;4;2
73305;PMS5003;61530;51.158;0.880;2023-04-25T04:44:40;5;5;2
73305;PMS5003;61530;51.158;0.880;2023-04-25T04:45:44;5;5;3
73305;PMS5003;61530;51.158;0.880;2023-04-25T04:46:49;5;4;2
73305;PMS5003;61530;51.158;0.880;2023-04-25T04:47:53;9;9;4
73305;PMS5003;61530;51.158;0.880;2023-04-25T04:48:56;9;5;3
73305;PMS5003;61530;51.158;0.880;2023-04-25T04:50:00;7;7;3
73305;PMS5003;61530;51.158;0.880;2023-04-25T04:51:05;11;8;2
73305;PMS5003;61530;51.158;0.880;2023-04-25T04:52:09;9;7;4
73305;PMS5003;61530;51.158;0.880;2023-04-25T04:53:12;4;3;2
73305;PMS5003;61530;51.158;0.880;2023-04-25T04:54:16;8;4;3
73305;PMS5003;61530;51.158;0.880;2023-04-25T04:55:21;14;7;2
73305;PMS5003;61530;51.158;0.880;2023-04-25T04:56:25;10;4;2
73305;PMS5003;61530;51.158;0.880;2023-04-25T04:57:28;7;4;2
73305;PMS5003;61530;51.158;0.880;2023-04-25T04:58:32;8;5;2
73305;PMS5003;61530;51.158;0.880;2023-04-25T04:59:37;4;3;2
73305;PMS5003;61530;51.158;0.880;2023-04-25T05:00:41;9;5;3
73305;PMS5003;61530;51.158;0.880;2023-04-25T05:01:44;4;4;2
73305;PMS5003;61530;51.158;0.880;2023-04-25T05:02:48;5;5;3
73305;PMS5003;61530;51.158;0.880;2023-04-25T05:03:53;10;5;2
73305;PMS5003;61530;51.158;0.880;2023-04-25T05:04:56;13;8;4
73305;PMS5003;61530;51.158;0.880;2023-04-25T05:06:00;8;5;3
73305;PMS5003;61530;51.158;0.880;2023-04-25T05:07:04;4;3;1
73305;PMS5003;61530;51.158;0.880;2023-04-25T05:08:09;8;7;3
73305;PMS5003;61530;51.158;0.880;2023-04-25T05:09:12;9;5;2
73305;PMS5003;61530;51.158;0.880;2023-04-25T05:10:16;5;5;3
73305;PMS5003;61530;51.158;0.880;2023-04-25T05:11:20;4;4;3
73305;PMS5003;61530;51.158;0.880;2023-04-25T05:12:25;7;5;4
73305;PMS5003;61530;51.158;0.880;2023-04-25T05:13:28;5;3;2
73305;PMS5003;61530;51.158;0.880;2023-04-25T05:14:32;4;4;3
73305;PMS5003;61530;51.158;0.880;2023-04-25T05:15:36;9;4;2
73305;PMS5003;61530;51.158;0.880;2023-04-25T05:16:41;5;5;3
73305;PMS5003;61530;51.158;0.880;2023-04-25T05:17:45;5;5;3
73305;PMS5003;61530;51.158;0.880;2023-04-25T05:18:48;3;3;1
73305;PMS5003;61530;51.158;0.880;2023-04-25T05:19:52;8;4;2
73305;PMS5003;61530;51.158;0.880;2023-04-25T05:20:57;10;7;2
73305;PMS5003;61530;51.158;0.880;2023-04-25T05:22:01;3;3;3
73305;PMS5003;61530;51.158;0.880;2023-04-25T05:23:04;7;7;4
73305;PMS5003;61530;51.158;0.880;2023-04-25T05:24:08;7;4;2
73305;PMS5003;61530;51.158;0.880;2023-04-25T05:25:13;4;4;2
73305;PMS5003;61530;51.158;0.880;2023-04-25T05:26:16;7;4;2
73305;PMS5003;61530;51.158;0.880;2023-04-25T05:27:20;8;7;3
73305;PMS5003;61530;51.158;0.880;2023-04-25T05:28:24;5;5;3
73305;PMS5003;61530;51.158;0.880;2023-04-25T05:29:29;5;5;3
73305;PMS5003;61530;51.158;0.880;2023-04-25T05:30:34;8;7;3
73305;PMS5003;61530;51.158;0.880;2023-04-25T05:31:36;11;5;3
73305;PMS5003;61530;51.158;0.880;2023-04-25T05:32:40;5;5;1
73305;PMS5003;61530;51.158;0.880;2023-04-25T05:33:46;5;5;4
73305;PMS5003;61530;51.158;0.880;2023-04-25T05:34:48;8;5;2
73305;PMS5003;61530;51.158;0.880;2023-04-25T05:35:52;7;4;2
73305;PMS5003;61530;51.158;0.880;2023-04-25T05:36:56;9;5;3
73305;PMS5003;61530;51.158;0.880;2023-04-25T05:38:01;7;7;3
73305;PMS5003;61530;51.158;0.880;2023-04-25T05:39:05;7;7;2
73305;PMS5003;61530;51.158;0.880;2023-04-25T05:40:08;9;8;3
73305;PMS5003;61530;51.158;0.880;2023-04-25T05:41:12;5;5;3
73305;PMS5003;61530;51.158;0.880;2023-04-25T05:42:17;5;5;4
73305;PMS5003;61530;51.158;0.880;2023-04-25T05:43:21;5;5;3
73305;PMS5003;61530;51.158;0.880;2023-04-25T05:44:24;7;5;3
73305;PMS5003;61530;51.158;0.880;2023-04-25T05:45:28;8;8;2
73305;PMS5003;61530;51.158;0.880;2023-04-25T05:46:33;9;4;2
73305;PMS5003;61530;51.158;0.880;2023-04-25T05:47:37;8;7;3
73305;PMS5003;61530;51.158;0.880;2023-04-25T05:48:40;7;4;2
73305;PMS5003;61530;51.158;0.880;2023-04-25T05:49:44;10;5;3
73305;PMS5003;61530;51.158;0.880;2023-04-25T05:50:49;8;7;3
73305;PMS5003;61530;51.158;0.880;2023-04-25T05:51:53;9;7;3
73305;PMS5003;61530;51.158;0.880;2023-04-25T05:52:56;7;7;3
73305;PMS5003;61530;51.158;0.880;2023-04-25T05:54:00;5;5;3
73305;PMS5003;61530;51.158;0.880;2023-04-25T05:55:05;9;5;4
73305;PMS5003;61530;51.158;0.880;2023-04-25T05:56:09;11;8;4
73305;PMS5003;61530;51.158;0.880;2023-04-25T05:57:18;8;4;3
73305;PMS5003;61530;51.158;0.880;2023-04-25T05:58:15;7;5;3
73305;PMS5003;61530;51.158;0.880;2023-04-25T05:59:21;11;7;2
73305;PMS5003;61530;51.158;0.880;2023-04-25T06:00:25;5;5;3
73305;PMS5003;61530;51.158;0.880;2023-04-25T06:01:28;5;5;2
73305;PMS5003;61530;51.158;0.880;2023-04-25T06:02:32;7;5;2
73305;PMS5003;61530;51.158;0.880;2023-04-25T06:03:37;7;5;3
73305;PMS5003;61530;51.158;0.880;2023-04-25T06:04:41;5;5;3
73305;PMS5003;61530;51.158;0.880;2023-04-25T06:05:44;11;11;4
73305;PMS5003;61530;51.158;0.880;2023-04-25T06:06:48;7;4;2
73305;PMS5003;61530;51.158;0.880;2023-04-25T06:07:53;9;8;3
73305;PMS5003;61530;51.158;0.880;2023-04-25T06:08:57;7;5;3
73305;PMS5003;61530;51.158;0.880;2023-04-25T06:10:00;8;5;2
73305;PMS5003;61530;51.158;0.880;2023-04-25T06:11:04;9;7;3
73305;PMS5003;61530;51.158;0.880;2023-04-25T06:12:09;5;5;3
73305;PMS5003;61530;51.158;0.880;2023-04-25T06:13:13;10;9;4
73305;PMS5003;61530;51.158;0.880;2023-04-25T06:14:16;8;7;3
73305;PMS5003;61530;51.158;0.880;2023-04-25T06:15:19;7;7;3
73305;PMS5003;61530;51.158;0.880;2023-04-25T06:16:25;5;5;2
73305;PMS5003;61530;51.158;0.880;2023-04-25T06:17:29;4;4;2
73305;PMS5003;61530;51.158;0.880;2023-04-25T06:18:32;5;5;3
73305;PMS5003;61530;51.158;0.880;2023-04-25T06:19:36;8;7;3
73305;PMS5003;61530;51.158;0.880;2023-04-25T06:20:41;10;7;3
73305;PMS5003;61530;51.158;0.880;2023-04-25T06:21:45;4;4;2
73305;PMS5003;61530;51.158;0.880;2023-04-25T06:22:48;8;7;2
73305;PMS5003;61530;51.158;0.880;2023-04-25T06:23:52;9;8;3
73305;PMS5003;61530;51.158;0.880;2023-04-25T06:24:57;5;5;3
73305;PMS5003;61530;51.158;0.880;2023-04-25T06:26:01;14;10;3
73305;PMS5003;61530;51.158;0.880;2023-04-25T06:27:04;8;7;3
73305;PMS5003;61530;51.158;0.880;2023-04-25T06:28:08;8;7;4
73305;PMS5003;61530;51.158;0.880;2023-04-25T06:29:13;12;5;3
73305;PMS5003;61530;51.158;0.880;2023-04-25T06:30:16;8;5;2
73305;PMS5003;61530;51.158;0.880;2023-04-25T06:31:20;5;5;3
73305;PMS5003;61530;51.158;0.880;2023-04-25T06:32:23;11;7;4
73305;PMS5003;61530;51.158;0.880;2023-04-25T06:33:29;8;7;4
73305;PMS5003;61530;51.158;0.880;2023-04-25T06:34:33;10;7;3
73305;PMS5003;61530;51.158;0.880;2023-04-25T06:35:36;9;5;3
73305;PMS5003;61530;51.158;0.880;2023-04-25T06:36:39;9;7;3
73305;PMS5003;61530;51.158;0.880;2023-04-25T06:37:45;9;8;3
73305;PMS5003;61530;51.158;0.880;2023-04-25T06:38:49;10;9;3
73305;PMS5003;61530;51.158;0.880;2023-04-25T06:39:52;9;5;3
73305;PMS5003;61530;51.158;0.880;2023-04-25T06:40:56;9;5;3
73305;PMS5003;61530;51.158;0.880;2023-04-25T06:42:01;10;5;3
73305;PMS5003;61530;51.158;0.880;2023-04-25T06:43:05;8;5;2
73305;PMS5003;61530;51.158;0.880;2023-04-25T06:44:08;7;7;3
73305;PMS5003;61530;51.158;0.880;2023-04-25T06:45:11;9;7;3
73305;PMS5003;61530;51.158;0.880;2023-04-25T06:46:17;9;8;3
73305;PMS5003;61530;51.158;0.880;2023-04-25T06:47:20;8;7;2
73305;PMS5003;61530;51.158;0.880;2023-04-25T06:48:24;8;7;3
73305;PMS5003;61530;51.158;0.880;2023-04-25T06:49:27;10;8;4
73305;PMS5003;61530;51.158;0.880;2023-04-25T06:50:33;44;44;37
73305;PMS5003;61530;51.158;0.880;2023-04-25T06:51:37;60;60;56
73305;PMS5003;61530;51.158;0.880;2023-04-25T06:52:40;7;7;3
73305;PMS5003;61530;51.158;0.880;2023-04-25T06:53:44;12;9;4
73305;PMS5003;61530;51.158;0.880;2023-04-25T06:54:49;11;7;3
73305;PMS5003;61530;51.158;0.880;2023-04-25T06:55:53;13;13;6
73305;PMS5003;61530;51.158;0.880;2023-04-25T06:56:56;29;27;23
73305;PMS5003;61530;51.158;0.880;2023-04-25T06:57:59;51;49;46
73305;PMS5003;61530;51.158;0.880;2023-04-25T06:59:05;65;61;58
73305;PMS5003;61530;51.158;0.880;2023-04-25T07:00:09;62;60;58
73305;PMS5003;61530;51.158;0.880;2023-04-25T07:01:12;20;17;16